sensor_id;sensor_type;location;lat;lon;timestamp;temperature;humidity
40960;DHT22;27842;52.272;8.052;2023-10-09T00:00:15;15.20;96.40
40960;DHT22;27842;52.272;8.052;2023-10-09T00:03:00;15.10;96.40
40960;DHT22;27842;52.272;8.052;2023-10-09T00:05:29;15.10;96.40
40960;DHT22;27842;52.272;8.052;2023-10-09T00:08:15;15.10;96.50
40960;DHT22;27842;52.272;8.052;2023-10-09T00:10:51;15.10;96.50
40960;DHT22;27842;52.272;8.052;2023-10-09T00:13:24;15.00;96.60
40960;DHT22;27842;52.272;8.052;2023-10-09T00:15:58;15.00;96.60
40960;DHT22;27842;52.272;8.052;2023-10-09T00:18:34;15.00;96.60
40960;DHT22;27842;52.272;8.052;2023-10-09T00:21:00;15.00;96.70
40960;DHT22;27842;52.272;8.052;2023-10-09T00:23:27;15.00;96.70
40960;DHT22;27842;52.272;8.052;2023-10-09T00:25:53;15.00;96.70
40960;DHT22;27842;52.272;8.052;2023-10-09T00:28:39;14.90;96.80
40960;DHT22;27842;52.272;8.052;2023-10-09T00:31:10;14.90;96.80
40960;DHT22;27842;52.272;8.052;2023-10-09T00:33:42;14.90;96.90
40960;DHT22;27842;52.272;8.052;2023-10-09T00:36:07;14.90;96.90
40960;DHT22;27842;52.272;8.052;2023-10-09T00:38:39;14.90;96.90
40960;DHT22;27842;52.272;8.052;2023-10-09T00:41:10;14.80;96.90
40960;DHT22;27842;52.272;8.052;2023-10-09T00:43:37;14.80;97.00
40960;DHT22;27842;52.272;8.052;2023-10-09T00:46:05;14.80;97.00
40960;DHT22;27842;52.272;8.052;2023-10-09T00:48:48;14.80;97.10
40960;DHT22;27842;52.272;8.052;2023-10-09T00:51:18;14.90;97.10
40960;DHT22;27842;52.272;8.052;2023-10-09T00:53:52;14.80;97.20
40960;DHT22;27842;52.272;8.052;2023-10-09T00:56:20;14.80;97.20
40960;DHT22;27842;52.272;8.052;2023-10-09T00:58:59;14.90;97.20
40960;DHT22;27842;52.272;8.052;2023-10-09T01:01:32;14.80;97.20
40960;DHT22;27842;52.272;8.052;2023-10-09T01:04:04;14.80;97.30
40960;DHT22;27842;52.272;8.052;2023-10-09T01:06:41;14.90;97.30
40960;DHT22;27842;52.272;8.052;2023-10-09T01:09:16;14.90;97.30
40960;DHT22;27842;52.272;8.052;2023-10-09T01:11:48;14.90;97.40
40960;DHT22;27842;52.272;8.052;2023-10-09T01:14:17;14.90;97.40
40960;DHT22;27842;52.272;8.052;2023-10-09T01:16:46;14.90;97.40
40960;DHT22;27842;52.272;8.052;2023-10-09T01:19:13;14.90;97.50
40960;DHT22;27842;52.272;8.052;2023-10-09T01:21:45;14.90;97.50
40960;DHT22;27842;52.272;8.052;2023-10-09T01:24:10;14.90;97.50
40960;DHT22;27842;52.272;8.052;2023-10-09T01:26:40;14.90;97.60
40960;DHT22;27842;52.272;8.052;2023-10-09T01:29:17;14.90;97.60
40960;DHT22;27842;52.272;8.052;2023-10-09T01:31:47;14.90;97.60
40960;DHT22;27842;52.272;8.052;2023-10-09T01:34:30;14.90;97.60
40960;DHT22;27842;52.272;8.052;2023-10-09T01:37:19;15.00;97.70
40960;DHT22;27842;52.272;8.052;2023-10-09T01:39:49;15.00;97.80
40960;DHT22;27842;52.272;8.052;2023-10-09T01:42:16;14.90;97.80
40960;DHT22;27842;52.272;8.052;2023-10-09T01:45:03;14.90;97.80
40960;DHT22;27842;52.272;8.052;2023-10-09T01:47:52;15.00;97.90
40960;DHT22;27842;52.272;8.052;2023-10-09T01:50:19;15.00;98.00
40960;DHT22;27842;52.272;8.052;2023-10-09T01:52:50;15.00;98.10
40960;DHT22;27842;52.272;8.052;2023-10-09T01:55:19;15.00;98.10
40960;DHT22;27842;52.272;8.052;2023-10-09T01:58:14;15.00;98.10
40960;DHT22;27842;52.272;8.052;2023-10-09T02:00:52;15.00;98.10
40960;DHT22;27842;52.272;8.052;2023-10-09T02:03:21;15.00;98.10
40960;DHT22;27842;52.272;8.052;2023-10-09T02:05:51;15.00;98.20
40960;DHT22;27842;52.272;8.052;2023-10-09T02:08:18;15.00;98.20
40960;DHT22;27842;52.272;8.052;2023-10-09T02:10:52;15.00;98.30
40960;DHT22;27842;52.272;8.052;2023-10-09T02:13:21;15.00;98.30
40960;DHT22;27842;52.272;8.052;2023-10-09T02:15:56;15.00;98.90
40960;DHT22;27842;52.272;8.052;2023-10-09T02:18:24;15.00;98.30
40960;DHT22;27842;52.272;8.052;2023-10-09T02:23:32;15.00;98.30
40960;DHT22;27842;52.272;8.052;2023-10-09T02:26:13;15.00;98.40
40960;DHT22;27842;52.272;8.052;2023-10-09T02:28:50;15.00;98.50
40960;DHT22;27842;52.272;8.052;2023-10-09T02:31:24;15.00;98.50
40960;DHT22;27842;52.272;8.052;2023-10-09T02:33:52;15.00;98.50
40960;DHT22;27842;52.272;8.052;2023-10-09T02:36:24;15.00;98.60
40960;DHT22;27842;52.272;8.052;2023-10-09T02:38:50;15.00;98.60
40960;DHT22;27842;52.272;8.052;2023-10-09T02:41:18;15.00;98.60
40960;DHT22;27842;52.272;8.052;2023-10-09T02:43:46;15.00;98.70
40960;DHT22;27842;52.272;8.052;2023-10-09T02:46:17;15.00;98.70
40960;DHT22;27842;52.272;8.052;2023-10-09T02:48:44;15.00;98.70
40960;DHT22;27842;52.272;8.052;2023-10-09T02:51:19;15.00;99.10
40960;DHT22;27842;52.272;8.052;2023-10-09T02:53:54;14.90;98.80
40960;DHT22;27842;52.272;8.052;2023-10-09T02:56:22;15.00;98.90
40960;DHT22;27842;52.272;8.052;2023-10-09T02:59:01;14.90;98.90
40960;DHT22;27842;52.272;8.052;2023-10-09T03:01:31;14.90;99.00
40960;DHT22;27842;52.272;8.052;2023-10-09T03:03:57;15.00;99.00
40960;DHT22;27842;52.272;8.052;2023-10-09T03:06:24;14.90;99.00
40960;DHT22;27842;52.272;8.052;2023-10-09T03:08:59;14.90;99.00
40960;DHT22;27842;52.272;8.052;2023-10-09T03:11:24;14.90;99.00
40960;DHT22;27842;52.272;8.052;2023-10-09T03:13:52;14.90;99.00
40960;DHT22;27842;52.272;8.052;2023-10-09T03:16:19;14.90;99.00
40960;DHT22;27842;52.272;8.052;2023-10-09T03:18:51;14.90;99.00
40960;DHT22;27842;52.272;8.052;2023-10-09T03:21:20;14.90;99.10
40960;DHT22;27842;52.272;8.052;2023-10-09T03:23:47;14.90;99.10
40960;DHT22;27842;52.272;8.052;2023-10-09T03:26:19;14.90;99.10
40960;DHT22;27842;52.272;8.052;2023-10-09T03:28:48;14.90;99.10
40960;DHT22;27842;52.272;8.052;2023-10-09T03:31:14;14.90;99.10
40960;DHT22;27842;52.272;8.052;2023-10-09T03:33:40;14.90;99.10
40960;DHT22;27842;52.272;8.052;2023-10-09T03:36:07;14.90;99.10
40960;DHT22;27842;52.272;8.052;2023-10-09T03:38:38;14.90;99.10
40960;DHT22;27842;52.272;8.052;2023-10-09T03:41:05;14.90;99.20
40960;DHT22;27842;52.272;8.052;2023-10-09T03:43:34;14.90;99.20
40960;DHT22;27842;52.272;8.052;2023-10-09T03:46:08;14.90;99.20
40960;DHT22;27842;52.272;8.052;2023-10-09T03:48:49;14.80;99.20
40960;DHT22;27842;52.272;8.052;2023-10-09T03:51:15;14.80;99.20
40960;DHT22;27842;52.272;8.052;2023-10-09T03:53:51;14.90;99.20
40960;DHT22;27842;52.272;8.052;2023-10-09T03:56:18;14.90;99.30
40960;DHT22;27842;52.272;8.052;2023-10-09T03:58:48;14.90;99.20
40960;DHT22;27842;52.272;8.052;2023-10-09T04:01:23;14.90;99.30
40960;DHT22;27842;52.272;8.052;2023-10-09T04:03:56;14.90;99.30
40960;DHT22;27842;52.272;8.052;2023-10-09T04:06:29;14.90;99.30
40960;DHT22;27842;52.272;8.052;2023-10-09T04:09:06;14.90;99.30
40960;DHT22;27842;52.272;8.052;2023-10-09T04:11:47;14.90;99.40
40960;DHT22;27842;52.272;8.052;2023-10-09T04:14:15;14.90;99.40
40960;DHT22;27842;52.272;8.052;2023-10-09T04:16:51;14.90;99.40
40960;DHT22;27842;52.272;8.052;2023-10-09T04:19:17;14.80;99.40
40960;DHT22;27842;52.272;8.052;2023-10-09T04:21:48;14.90;99.40
40960;DHT22;27842;52.272;8.052;2023-10-09T04:24:14;14.90;99.40
40960;DHT22;27842;52.272;8.052;2023-10-09T04:26:40;14.90;99.40
40960;DHT22;27842;52.272;8.052;2023-10-09T04:29:13;14.90;99.50
40960;DHT22;27842;52.272;8.052;2023-10-09T04:32:04;14.90;99.50
40960;DHT22;27842;52.272;8.052;2023-10-09T04:34:33;14.90;99.50
40960;DHT22;27842;52.272;8.052;2023-10-09T04:37:03;14.90;99.80
40960;DHT22;27842;52.272;8.052;2023-10-09T04:39:48;14.90;99.50
40960;DHT22;27842;52.272;8.052;2023-10-09T04:42:14;14.90;99.40
40960;DHT22;27842;52.272;8.052;2023-10-09T04:44:46;15.00;99.40
40960;DHT22;27842;52.272;8.052;2023-10-09T04:47:34;15.00;99.50
40960;DHT22;27842;52.272;8.052;2023-10-09T04:50:15;15.00;99.50
40960;DHT22;27842;52.272;8.052;2023-10-09T04:52:44;15.00;99.40
40960;DHT22;27842;52.272;8.052;2023-10-09T04:55:13;15.00;99.30
40960;DHT22;27842;52.272;8.052;2023-10-09T04:57:46;15.10;99.50
40960;DHT22;27842;52.272;8.052;2023-10-09T05:00:52;15.00;99.50
40960;DHT22;27842;52.272;8.052;2023-10-09T05:14:43;15.10;99.50
40960;DHT22;27842;52.272;8.052;2023-10-09T05:20:37;15.10;99.40
40960;DHT22;27842;52.272;8.052;2023-10-09T05:23:21;15.20;99.40
40960;DHT22;27842;52.272;8.052;2023-10-09T05:25:50;15.20;99.40
40960;DHT22;27842;52.272;8.052;2023-10-09T05:28:19;15.20;99.40
40960;DHT22;27842;52.272;8.052;2023-10-09T05:30:56;15.20;99.40
40960;DHT22;27842;52.272;8.052;2023-10-09T05:33:37;15.20;99.40
40960;DHT22;27842;52.272;8.052;2023-10-09T05:36:04;15.20;99.40
40960;DHT22;27842;52.272;8.052;2023-10-09T05:38:40;15.20;99.60
40960;DHT22;27842;52.272;8.052;2023-10-09T05:41:12;15.10;99.50
40960;DHT22;27842;52.272;8.052;2023-10-09T05:44:01;15.10;99.50
40960;DHT22;27842;52.272;8.052;2023-10-09T05:46:45;15.10;99.50
40960;DHT22;27842;52.272;8.052;2023-10-09T05:49:33;15.10;99.60
40960;DHT22;27842;52.272;8.052;2023-10-09T05:52:12;15.10;99.60
40960;DHT22;27842;52.272;8.052;2023-10-09T05:54:56;15.10;99.60
40960;DHT22;27842;52.272;8.052;2023-10-09T05:57:40;15.10;99.60
40960;DHT22;27842;52.272;8.052;2023-10-09T06:00:22;15.10;99.70
40960;DHT22;27842;52.272;8.052;2023-10-09T06:03:08;15.10;99.70
40960;DHT22;27842;52.272;8.052;2023-10-09T06:05:53;15.10;99.80
40960;DHT22;27842;52.272;8.052;2023-10-09T06:08:26;15.10;99.80
40960;DHT22;27842;52.272;8.052;2023-10-09T06:10:55;15.20;99.80
40960;DHT22;27842;52.272;8.052;2023-10-09T06:13:50;15.20;99.90
40960;DHT22;27842;52.272;8.052;2023-10-09T06:16:28;15.20;99.80
40960;DHT22;27842;52.272;8.052;2023-10-09T06:19:25;15.20;99.90
40960;DHT22;27842;52.272;8.052;2023-10-09T06:21:55;15.20;99.90
40960;DHT22;27842;52.272;8.052;2023-10-09T06:24:40;15.20;99.90
40960;DHT22;27842;52.272;8.052;2023-10-09T06:27:18;15.20;99.90
40960;DHT22;27842;52.272;8.052;2023-10-09T06:29:57;15.20;99.90
40960;DHT22;27842;52.272;8.052;2023-10-09T06:32:42;15.20;99.90
40960;DHT22;27842;52.272;8.052;2023-10-09T06:35:26;15.20;99.90
40960;DHT22;27842;52.272;8.052;2023-10-09T06:37:59;15.20;99.90
40960;DHT22;27842;52.272;8.052;2023-10-09T06:40:35;15.20;99.90
40960;DHT22;27842;52.272;8.052;2023-10-09T06:43:23;15.20;99.90
40960;DHT22;27842;52.272;8.052;2023-10-09T06:45:50;15.30;99.90
40960;DHT22;27842;52.272;8.052;2023-10-09T06:48:39;15.30;99.90
40960;DHT22;27842;52.272;8.052;2023-10-09T06:51:08;15.30;99.90
40960;DHT22;27842;52.272;8.052;2023-10-09T06:53:53;15.30;99.90
40960;DHT22;27842;52.272;8.052;2023-10-09T06:56:22;15.30;99.90
40960;DHT22;27842;52.272;8.052;2023-10-09T06:58:57;15.30;99.90
40960;DHT22;27842;52.272;8.052;2023-10-09T07:01:27;15.30;99.90
40960;DHT22;27842;52.272;8.052;2023-10-09T07:03:56;15.30;99.90
40960;DHT22;27842;52.272;8.052;2023-10-09T07:06:40;15.30;99.90
40960;DHT22;27842;52.272;8.052;2023-10-09T07:09:06;15.30;99.90
40960;DHT22;27842;52.272;8.052;2023-10-09T07:11:35;15.40;99.90
40960;DHT22;27842;52.272;8.052;2023-10-09T07:14:06;15.40;99.90
40960;DHT22;27842;52.272;8.052;2023-10-09T07:16:33;15.40;99.90
40960;DHT22;27842;52.272;8.052;2023-10-09T07:19:05;15.40;99.90
40960;DHT22;27842;52.272;8.052;2023-10-09T07:21:56;15.40;99.90
40960;DHT22;27842;52.272;8.052;2023-10-09T07:24:31;15.40;99.90
40960;DHT22;27842;52.272;8.052;2023-10-09T07:27:12;15.40;99.90
40960;DHT22;27842;52.272;8.052;2023-10-09T07:29:41;15.50;99.90
40960;DHT22;27842;52.272;8.052;2023-10-09T07:32:16;15.40;99.90
40960;DHT22;27842;52.272;8.052;2023-10-09T07:34:49;15.50;99.90
40960;DHT22;27842;52.272;8.052;2023-10-09T07:37:20;15.50;99.90
40960;DHT22;27842;52.272;8.052;2023-10-09T07:39:51;15.50;99.90
40960;DHT22;27842;52.272;8.052;2023-10-09T07:42:26;15.50;99.90
40960;DHT22;27842;52.272;8.052;2023-10-09T07:44:59;15.50;99.90
40960;DHT22;27842;52.272;8.052;2023-10-09T07:47:40;15.50;99.90
40960;DHT22;27842;52.272;8.052;2023-10-09T07:50:27;15.50;99.90
40960;DHT22;27842;52.272;8.052;2023-10-09T07:53:09;15.50;99.90
40960;DHT22;27842;52.272;8.052;2023-10-09T07:55:45;15.50;99.90
40960;DHT22;27842;52.272;8.052;2023-10-09T07:58:21;15.50;99.90
40960;DHT22;27842;52.272;8.052;2023-10-09T08:00:57;15.60;99.90
40960;DHT22;27842;52.272;8.052;2023-10-09T08:03:36;15.50;99.90
40960;DHT22;27842;52.272;8.052;2023-10-09T08:06:02;15.60;99.90
40960;DHT22;27842;52.272;8.052;2023-10-09T08:08:46;15.60;99.90
40960;DHT22;27842;52.272;8.052;2023-10-09T08:11:35;15.60;99.90
40960;DHT22;27842;52.272;8.052;2023-10-09T08:14:20;15.60;99.90
40960;DHT22;27842;52.272;8.052;2023-10-09T08:17:01;15.60;99.90
40960;DHT22;27842;52.272;8.052;2023-10-09T08:19:50;15.60;99.90
40960;DHT22;27842;52.272;8.052;2023-10-09T08:22:37;15.60;99.90
40960;DHT22;27842;52.272;8.052;2023-10-09T08:25:09;15.60;99.90
40960;DHT22;27842;52.272;8.052;2023-10-09T08:27:52;15.60;99.90
40960;DHT22;27842;52.272;8.052;2023-10-09T08:30:21;15.60;99.90
40960;DHT22;27842;52.272;8.052;2023-10-09T08:32:49;15.60;99.90
40960;DHT22;27842;52.272;8.052;2023-10-09T08:35:33;15.60;99.90
40960;DHT22;27842;52.272;8.052;2023-10-09T08:38:03;15.60;99.90
40960;DHT22;27842;52.272;8.052;2023-10-09T08:40:35;15.70;99.90
40960;DHT22;27842;52.272;8.052;2023-10-09T08:43:17;15.60;99.90
40960;DHT22;27842;52.272;8.052;2023-10-09T08:45:52;15.60;99.90
40960;DHT22;27842;52.272;8.052;2023-10-09T08:48:20;15.60;99.90
40960;DHT22;27842;52.272;8.052;2023-10-09T08:50:52;15.70;99.90
40960;DHT22;27842;52.272;8.052;2023-10-09T08:53:21;15.60;99.90
40960;DHT22;27842;52.272;8.052;2023-10-09T08:55:46;15.70;99.90
40960;DHT22;27842;52.272;8.052;2023-10-09T08:58:14;15.60;99.90
40960;DHT22;27842;52.272;8.052;2023-10-09T09:00:50;15.70;99.90
40960;DHT22;27842;52.272;8.052;2023-10-09T09:03:17;15.70;99.90
40960;DHT22;27842;52.272;8.052;2023-10-09T09:05:48;15.70;99.90
40960;DHT22;27842;52.272;8.052;2023-10-09T09:08:23;15.60;99.90
40960;DHT22;27842;52.272;8.052;2023-10-09T09:10:57;15.70;99.90
40960;DHT22;27842;52.272;8.052;2023-10-09T09:13:48;15.70;99.90
40960;DHT22;27842;52.272;8.052;2023-10-09T09:16:33;15.70;99.90
40960;DHT22;27842;52.272;8.052;2023-10-09T09:19:03;15.70;99.90
40960;DHT22;27842;52.272;8.052;2023-10-09T09:21:42;15.70;99.90
40960;DHT22;27842;52.272;8.052;2023-10-09T09:24:56;15.70;99.90
40960;DHT22;27842;52.272;8.052;2023-10-09T09:27:47;15.70;99.90
40960;DHT22;27842;52.272;8.052;2023-10-09T09:30:28;15.70;99.90
40960;DHT22;27842;52.272;8.052;2023-10-09T09:33:16;15.70;99.90
40960;DHT22;27842;52.272;8.052;2023-10-09T09:36:02;15.70;99.90
40960;DHT22;27842;52.272;8.052;2023-10-09T09:38:29;15.70;99.90
40960;DHT22;27842;52.272;8.052;2023-10-09T09:41:07;15.70;99.90
40960;DHT22;27842;52.272;8.052;2023-10-09T09:43:36;15.80;99.90
40960;DHT22;27842;52.272;8.052;2023-10-09T09:46:03;15.80;99.90
40960;DHT22;27842;52.272;8.052;2023-10-09T09:48:38;15.80;99.90
40960;DHT22;27842;52.272;8.052;2023-10-09T09:51:15;15.80;99.90
40960;DHT22;27842;52.272;8.052;2023-10-09T09:53:44;15.80;99.90
40960;DHT22;27842;52.272;8.052;2023-10-09T09:56:15;15.80;99.90
40960;DHT22;27842;52.272;8.052;2023-10-09T09:58:45;15.80;99.90
40960;DHT22;27842;52.272;8.052;2023-10-09T10:01:19;15.90;99.90
40960;DHT22;27842;52.272;8.052;2023-10-09T10:04:15;15.90;99.90
40960;DHT22;27842;52.272;8.052;2023-10-09T10:06:47;15.90;99.90
40960;DHT22;27842;52.272;8.052;2023-10-09T10:09:41;15.90;99.90
40960;DHT22;27842;52.272;8.052;2023-10-09T10:12:08;15.90;99.90
40960;DHT22;27842;52.272;8.052;2023-10-09T10:14:53;15.90;99.90
40960;DHT22;27842;52.272;8.052;2023-10-09T10:17:22;16.00;99.90
40960;DHT22;27842;52.272;8.052;2023-10-09T10:22:30;16.00;99.90
40960;DHT22;27842;52.272;8.052;2023-10-09T10:24:56;16.00;99.90
40960;DHT22;27842;52.272;8.052;2023-10-09T10:27:34;16.00;99.90
40960;DHT22;27842;52.272;8.052;2023-10-09T10:32:58;16.00;99.90
40960;DHT22;27842;52.272;8.052;2023-10-09T10:35:41;16.10;99.90
40960;DHT22;27842;52.272;8.052;2023-10-09T10:38:26;16.10;99.90
40960;DHT22;27842;52.272;8.052;2023-10-09T10:41:11;16.10;99.90
40960;DHT22;27842;52.272;8.052;2023-10-09T10:43:37;16.10;99.90
40960;DHT22;27842;52.272;8.052;2023-10-09T10:46:15;16.10;99.90
40960;DHT22;27842;52.272;8.052;2023-10-09T10:49:00;16.10;99.90
40960;DHT22;27842;52.272;8.052;2023-10-09T10:51:40;16.10;99.90
40960;DHT22;27842;52.272;8.052;2023-10-09T10:54:07;16.10;99.90
40960;DHT22;27842;52.272;8.052;2023-10-09T10:56:52;16.10;99.90
40960;DHT22;27842;52.272;8.052;2023-10-09T10:59:18;16.10;99.90
40960;DHT22;27842;52.272;8.052;2023-10-09T11:01:52;16.10;99.90
40960;DHT22;27842;52.272;8.052;2023-10-09T11:04:28;16.10;99.90
40960;DHT22;27842;52.272;8.052;2023-10-09T11:07:01;16.10;99.90
40960;DHT22;27842;52.272;8.052;2023-10-09T11:10:23;16.10;99.90
40960;DHT22;27842;52.272;8.052;2023-10-09T11:12:57;16.10;99.90
40960;DHT22;27842;52.272;8.052;2023-10-09T11:15:36;16.20;99.90
40960;DHT22;27842;52.272;8.052;2023-10-09T11:18:22;16.10;99.90
40960;DHT22;27842;52.272;8.052;2023-10-09T11:20:58;16.10;99.90
40960;DHT22;27842;52.272;8.052;2023-10-09T11:23:33;16.20;99.90
40960;DHT22;27842;52.272;8.052;2023-10-09T11:25:59;16.20;99.90
40960;DHT22;27842;52.272;8.052;2023-10-09T11:29:08;16.20;99.90
40960;DHT22;27842;52.272;8.052;2023-10-09T11:31:57;16.20;99.90
40960;DHT22;27842;52.272;8.052;2023-10-09T11:34:25;16.20;99.90
40960;DHT22;27842;52.272;8.052;2023-10-09T11:37:12;16.20;99.90
40960;DHT22;27842;52.272;8.052;2023-10-09T11:39:41;16.30;99.90
40960;DHT22;27842;52.272;8.052;2023-10-09T11:42:18;16.30;99.90
40960;DHT22;27842;52.272;8.052;2023-10-09T11:45:03;16.30;99.90
40960;DHT22;27842;52.272;8.052;2023-10-09T11:47:55;16.30;99.90
40960;DHT22;27842;52.272;8.052;2023-10-09T11:50:42;16.40;99.90
40960;DHT22;27842;52.272;8.052;2023-10-09T11:53:10;16.40;99.90
40960;DHT22;27842;52.272;8.052;2023-10-09T11:55:56;16.40;99.90
40960;DHT22;27842;52.272;8.052;2023-10-09T11:58:22;16.40;99.90
40960;DHT22;27842;52.272;8.052;2023-10-09T12:03:27;16.50;99.90
40960;DHT22;27842;52.272;8.052;2023-10-09T12:06:00;16.60;99.90
40960;DHT22;27842;52.272;8.052;2023-10-09T12:08:31;16.60;99.90
40960;DHT22;27842;52.272;8.052;2023-10-09T12:10:57;16.60;99.90
40960;DHT22;27842;52.272;8.052;2023-10-09T12:13:23;16.60;99.90
40960;DHT22;27842;52.272;8.052;2023-10-09T12:15:52;16.70;99.90
40960;DHT22;27842;52.272;8.052;2023-10-09T12:18:20;16.70;99.90
40960;DHT22;27842;52.272;8.052;2023-10-09T12:20:46;16.70;99.90
40960;DHT22;27842;52.272;8.052;2023-10-09T12:23:19;16.70;99.90
40960;DHT22;27842;52.272;8.052;2023-10-09T12:25:45;16.70;99.90
40960;DHT22;27842;52.272;8.052;2023-10-09T12:28:13;16.70;99.90
40960;DHT22;27842;52.272;8.052;2023-10-09T12:30:39;16.80;99.90
40960;DHT22;27842;52.272;8.052;2023-10-09T12:33:06;16.80;99.90
40960;DHT22;27842;52.272;8.052;2023-10-09T12:38:59;16.80;99.90
40960;DHT22;27842;52.272;8.052;2023-10-09T12:41:48;16.80;99.90
40960;DHT22;27842;52.272;8.052;2023-10-09T12:55:18;16.80;99.90
40960;DHT22;27842;52.272;8.052;2023-10-09T12:57:45;16.80;99.90
40960;DHT22;27842;52.272;8.052;2023-10-09T13:00:13;16.80;99.90
40960;DHT22;27842;52.272;8.052;2023-10-09T13:02:51;16.80;99.90
40960;DHT22;27842;52.272;8.052;2023-10-09T13:05:16;16.80;99.90
40960;DHT22;27842;52.272;8.052;2023-10-09T13:07:52;16.80;99.90
40960;DHT22;27842;52.272;8.052;2023-10-09T13:10:21;16.80;99.90
40960;DHT22;27842;52.272;8.052;2023-10-09T13:12:49;16.80;99.90
40960;DHT22;27842;52.272;8.052;2023-10-09T13:15:20;16.80;99.90
40960;DHT22;27842;52.272;8.052;2023-10-09T13:17:46;16.80;99.90
40960;DHT22;27842;52.272;8.052;2023-10-09T13:20:13;16.80;99.90
40960;DHT22;27842;52.272;8.052;2023-10-09T13:22:39;16.80;99.90
40960;DHT22;27842;52.272;8.052;2023-10-09T13:25:07;16.80;99.90
40960;DHT22;27842;52.272;8.052;2023-10-09T13:27:40;16.80;99.90
40960;DHT22;27842;52.272;8.052;2023-10-09T13:30:06;16.90;99.90
40960;DHT22;27842;52.272;8.052;2023-10-09T13:32:33;16.90;99.90
40960;DHT22;27842;52.272;8.052;2023-10-09T13:35:01;16.90;99.90
40960;DHT22;27842;52.272;8.052;2023-10-09T13:37:28;16.90;99.90
40960;DHT22;27842;52.272;8.052;2023-10-09T13:39:56;16.90;99.90
40960;DHT22;27842;52.272;8.052;2023-10-09T13:42:22;16.90;99.90
40960;DHT22;27842;52.272;8.052;2023-10-09T13:44:51;16.90;99.90
40960;DHT22;27842;52.272;8.052;2023-10-09T13:47:19;16.90;99.90
40960;DHT22;27842;52.272;8.052;2023-10-09T13:49:47;16.90;99.90
40960;DHT22;27842;52.272;8.052;2023-10-09T13:52:16;16.90;99.90
40960;DHT22;27842;52.272;8.052;2023-10-09T13:54:47;16.90;99.90
40960;DHT22;27842;52.272;8.052;2023-10-09T13:57:15;17.00;99.90
40960;DHT22;27842;52.272;8.052;2023-10-09T13:59:41;17.00;99.90
40960;DHT22;27842;52.272;8.052;2023-10-09T14:02:19;17.00;99.90
40960;DHT22;27842;52.272;8.052;2023-10-09T14:04:46;17.00;99.90
40960;DHT22;27842;52.272;8.052;2023-10-09T14:07:12;17.00;99.90
40960;DHT22;27842;52.272;8.052;2023-10-09T14:09:42;17.00;99.90
40960;DHT22;27842;52.272;8.052;2023-10-09T14:12:21;17.00;99.90
40960;DHT22;27842;52.272;8.052;2023-10-09T14:14:47;17.00;99.90
40960;DHT22;27842;52.272;8.052;2023-10-09T14:17:14;17.10;99.90
40960;DHT22;27842;52.272;8.052;2023-10-09T14:19:46;17.10;99.90
40960;DHT22;27842;52.272;8.052;2023-10-09T14:22:17;17.10;99.90
40960;DHT22;27842;52.272;8.052;2023-10-09T14:24:47;17.10;99.90
40960;DHT22;27842;52.272;8.052;2023-10-09T14:27:14;17.20;99.90
40960;DHT22;27842;52.272;8.052;2023-10-09T14:29:46;17.20;99.90
40960;DHT22;27842;52.272;8.052;2023-10-09T14:32:13;17.20;99.90
40960;DHT22;27842;52.272;8.052;2023-10-09T14:34:39;17.20;99.90
40960;DHT22;27842;52.272;8.052;2023-10-09T14:37:11;17.30;99.90
40960;DHT22;27842;52.272;8.052;2023-10-09T14:39:38;17.30;99.90
40960;DHT22;27842;52.272;8.052;2023-10-09T14:42:05;17.30;99.90
40960;DHT22;27842;52.272;8.052;2023-10-09T14:44:37;17.30;99.90
40960;DHT22;27842;52.272;8.052;2023-10-09T14:47:10;17.30;99.90
40960;DHT22;27842;52.272;8.052;2023-10-09T14:49:46;17.30;99.90
40960;DHT22;27842;52.272;8.052;2023-10-09T14:52:18;17.30;99.90
40960;DHT22;27842;52.272;8.052;2023-10-09T14:54:46;17.30;99.90
40960;DHT22;27842;52.272;8.052;2023-10-09T14:57:12;17.40;99.90
40960;DHT22;27842;52.272;8.052;2023-10-09T14:59:38;17.40;99.90
40960;DHT22;27842;52.272;8.052;2023-10-09T15:02:05;17.40;99.90
40960;DHT22;27842;52.272;8.052;2023-10-09T15:04:31;17.40;99.90
40960;DHT22;27842;52.272;8.052;2023-10-09T15:07:01;17.40;99.90
40960;DHT22;27842;52.272;8.052;2023-10-09T15:09:26;17.50;99.90
40960;DHT22;27842;52.272;8.052;2023-10-09T15:11:56;17.40;99.90
40960;DHT22;27842;52.272;8.052;2023-10-09T15:14:22;17.50;99.90
40960;DHT22;27842;52.272;8.052;2023-10-09T15:16:52;17.40;99.90
40960;DHT22;27842;52.272;8.052;2023-10-09T15:19:17;17.40;99.90
40960;DHT22;27842;52.272;8.052;2023-10-09T15:21:45;17.40;99.90
40960;DHT22;27842;52.272;8.052;2023-10-09T15:24:15;17.40;99.90
40960;DHT22;27842;52.272;8.052;2023-10-09T15:26:45;17.40;99.90
40960;DHT22;27842;52.272;8.052;2023-10-09T15:29:24;17.40;99.90
40960;DHT22;27842;52.272;8.052;2023-10-09T15:32:00;17.40;99.90
40960;DHT22;27842;52.272;8.052;2023-10-09T15:34:39;17.40;99.90
40960;DHT22;27842;52.272;8.052;2023-10-09T15:37:09;17.40;99.90
40960;DHT22;27842;52.272;8.052;2023-10-09T15:39:36;17.40;99.90
40960;DHT22;27842;52.272;8.052;2023-10-09T15:42:04;17.40;99.90
40960;DHT22;27842;52.272;8.052;2023-10-09T15:44:37;17.40;99.90
40960;DHT22;27842;52.272;8.052;2023-10-09T15:47:03;17.40;99.90
40960;DHT22;27842;52.272;8.052;2023-10-09T15:49:34;17.40;99.90
40960;DHT22;27842;52.272;8.052;2023-10-09T15:52:00;17.40;99.90
40960;DHT22;27842;52.272;8.052;2023-10-09T15:54:28;17.40;99.90
40960;DHT22;27842;52.272;8.052;2023-10-09T15:56:55;17.40;99.90
40960;DHT22;27842;52.272;8.052;2023-10-09T15:59:46;17.40;99.90
40960;DHT22;27842;52.272;8.052;2023-10-09T16:02:12;17.40;99.90
40960;DHT22;27842;52.272;8.052;2023-10-09T16:04:38;17.40;99.90
40960;DHT22;27842;52.272;8.052;2023-10-09T16:07:04;17.30;99.90
40960;DHT22;27842;52.272;8.052;2023-10-09T16:09:31;17.40;99.90
40960;DHT22;27842;52.272;8.052;2023-10-09T16:12:00;17.30;99.90
40960;DHT22;27842;52.272;8.052;2023-10-09T16:14:47;17.30;99.90
40960;DHT22;27842;52.272;8.052;2023-10-09T16:17:21;17.30;99.90
40960;DHT22;27842;52.272;8.052;2023-10-09T16:20:06;17.30;99.90
40960;DHT22;27842;52.272;8.052;2023-10-09T16:22:42;17.30;99.90
40960;DHT22;27842;52.272;8.052;2023-10-09T16:25:13;17.30;99.90
40960;DHT22;27842;52.272;8.052;2023-10-09T16:27:52;17.30;99.90
40960;DHT22;27842;52.272;8.052;2023-10-09T16:30:23;17.30;99.90
40960;DHT22;27842;52.272;8.052;2023-10-09T16:32:53;17.30;99.90
40960;DHT22;27842;52.272;8.052;2023-10-09T16:35:28;17.30;99.90
40960;DHT22;27842;52.272;8.052;2023-10-09T16:38:03;17.30;99.90
40960;DHT22;27842;52.272;8.052;2023-10-09T16:40:33;17.30;99.90
40960;DHT22;27842;52.272;8.052;2023-10-09T16:43:00;17.30;99.90
40960;DHT22;27842;52.272;8.052;2023-10-09T16:45:26;17.30;99.90
40960;DHT22;27842;52.272;8.052;2023-10-09T16:47:56;17.30;99.90
40960;DHT22;27842;52.272;8.052;2023-10-09T16:50:29;17.20;99.90